Map

Track Data

SID SEASON NUMBER BASIN SUBBASIN NAME ISO_TIME NATURE LAT LON WMO_WIND WMO_PRES WMO_AGENCY TRACK_TYPE DIST2LAND LANDFALL IFLAG USA_AGENCY USA_ATCF_ID USA_LAT USA_LON USA_RECORD USA_STATUS USA_WIND USA_PRES USA_SSHS USA_R34_NE USA_R34_SE USA_R34_SW USA_R34_NW USA_R50_NE USA_R50_SE USA_R50_SW USA_R50_NW USA_R64_NE USA_R64_SE USA_R64_SW USA_R64_NW USA_POCI USA_ROCI USA_RMW USA_EYE TOKYO_LAT TOKYO_LON TOKYO_GRADE TOKYO_WIND TOKYO_PRES TOKYO_R50_DIR TOKYO_R50_LONG TOKYO_R50_SHORT TOKYO_R30_DIR TOKYO_R30_LONG TOKYO_R30_SHORT TOKYO_LAND CMA_LAT CMA_LON CMA_CAT CMA_WIND CMA_PRES HKO_LAT HKO_LON HKO_CAT HKO_WIND HKO_PRES NEWDELHI_LAT NEWDELHI_LON NEWDELHI_GRADE NEWDELHI_WIND NEWDELHI_PRES NEWDELHI_CI NEWDELHI_DP NEWDELHI_POCI REUNION_LAT REUNION_LON REUNION_TYPE REUNION_WIND REUNION_PRES REUNION_TNUM REUNION_CI REUNION_RMW REUNION_R34_NE REUNION_R34_SE REUNION_R34_SW REUNION_R34_NW REUNION_R50_NE REUNION_R50_SE REUNION_R50_SW REUNION_R50_NW REUNION_R64_NE REUNION_R64_SE REUNION_R64_SW REUNION_R64_NW BOM_LAT BOM_LON BOM_TYPE BOM_WIND BOM_PRES BOM_TNUM BOM_CI BOM_RMW BOM_R34_NE BOM_R34_SE BOM_R34_SW BOM_R34_NW BOM_R50_NE BOM_R50_SE BOM_R50_SW BOM_R50_NW BOM_R64_NE BOM_R64_SE BOM_R64_SW BOM_R64_NW BOM_ROCI BOM_POCI BOM_EYE BOM_POS_METHOD BOM_PRES_METHOD NADI_LAT NADI_LON NADI_CAT NADI_WIND NADI_PRES WELLINGTON_LAT WELLINGTON_LON WELLINGTON_WIND WELLINGTON_PRES DS824_LAT DS824_LON DS824_STAGE DS824_WIND DS824_PRES TD9636_LAT TD9636_LON TD9636_STAGE TD9636_WIND TD9636_PRES TD9635_LAT TD9635_LON TD9635_WIND TD9635_PRES TD9635_ROCI NEUMANN_LAT NEUMANN_LON NEUMANN_CLASS NEUMANN_WIND NEUMANN_PRES MLC_LAT MLC_LON MLC_CLASS MLC_WIND MLC_PRES USA_GUST BOM_GUST BOM_GUST_PER REUNION_GUST REUNION_GUST_PER USA_SEAHGT USA_SEARAD_NE USA_SEARAD_SE USA_SEARAD_SW USA_SEARAD_NW STORM_SPEED STORM_DIR
1925199N17143 1925 31 WP MM NOT_NAMED 1925-07-17 22:00:00 NR 17.0000 142.500 main 1906 1906 __________O___ -1 17.0000 142.500 7 10 0
1925199N17143 1925 31 WP MM NOT_NAMED 1925-07-18 00:00:00 NR 17.3361 142.489 main 1914 1866 __________P___ -1 17.3361 142.489 7 10 0
1925199N17143 1925 31 WP MM NOT_NAMED 1925-07-18 03:00:00 NR 17.8330 142.483 main 1866 1813 __________P___ -1 17.8330 142.483 7 10 0
1925199N17143 1925 31 WP MM NOT_NAMED 1925-07-18 06:00:00 NR 18.3111 142.503 main 1813 1764 __________P___ -1 18.3111 142.503 7 9 5
1925199N17143 1925 31 WP MM NOT_NAMED 1925-07-18 09:00:00 NR 18.7592 142.566 main 1764 1754 __________P___ -1 18.7592 142.566 7 9 9
1925199N17143 1925 31 WP MM NOT_NAMED 1925-07-18 10:00:00 NR 18.9000 142.600 main 1754 1727 __________O___ -1 18.9000 142.600 7 9 15
1925199N17143 1925 31 WP MM NOT_NAMED 1925-07-18 12:00:00 NR 19.1667 142.688 main 1727 1700 __________P___ -1 19.1667 142.688 7 8 22
1925199N17143 1925 31 WP MM NOT_NAMED 1925-07-18 15:00:00 NR 19.5292 142.864 main 1704 1677 __________P___ -1 19.5292 142.864 7 8 28
1925199N17143 1925 31 WP MM NOT_NAMED 1925-07-18 18:00:00 NR 19.8466 143.079 main 1681 1659 __________P___ -1 19.8466 143.079 7 7 36
1925199N17143 1925 31 WP MM NOT_NAMED 1925-07-18 21:00:00 NR 20.1191 143.318 main 1659 1654 __________P___ -1 20.1191 143.318 7 7 41
1925199N17143 1925 31 WP MM NOT_NAMED 1925-07-18 22:00:00 NR 20.2000 143.400 main 1654 1643 __________O___ -1 20.2000 143.400 7 6 44
1925199N17143 1925 31 WP MM NOT_NAMED 1925-07-19 00:00:00 NR 20.3509 143.558 main 1643 1637 __________P___ -1 20.3509 143.558 7 6 48
1925199N17143 1925 31 WP MM NOT_NAMED 1925-07-19 03:00:00 NR 20.5395 143.808 main 1642 1632 __________P___ -1 20.5395 143.808 7 6 54
1925199N17143 1925 31 WP MM NOT_NAMED 1925-07-19 06:00:00 NR 20.6993 144.064 main 1636 1628 __________P___ -1 20.6993 144.064 7 6 57
1925199N17143 1925 31 WP MM NOT_NAMED 1925-07-19 09:00:00 NR 20.8490 144.318 main 1631 1621 __________P___ -1 20.8490 144.318 7 6 57
1925199N17143 1925 31 WP MM NOT_NAMED 1925-07-19 10:00:00 NR 20.9000 144.400 main 1623 1615 __________O___ -1 20.9000 144.400 7 6 55
1925199N17143 1925 31 WP MM NOT_NAMED 1925-07-19 12:00:00 NR 21.0114 144.561 main 1618 1602 __________P___ -1 21.0114 144.561 7 6 53
1925199N17143 1925 31 WP MM NOT_NAMED 1925-07-19 15:00:00 NR 21.1784 144.796 main 1602 1587 __________P___ -1 21.1784 144.796 7 5 52
1925199N17143 1925 31 WP MM NOT_NAMED 1925-07-19 18:00:00 NR 21.3508 145.021 main 1587 1579 __________P___ -1 21.3508 145.021 7 5 49
1925199N17143 1925 31 WP MM NOT_NAMED 1925-07-19 21:00:00 NR 21.5349 145.233 main 1582 1575 __________P___ -1 21.5349 145.233 7 5 46
1925199N17143 1925 31 WP MM NOT_NAMED 1925-07-19 22:00:00 NR 21.6000 145.300 main 1575 1567 __________O___ -1 21.6000 145.300 7 6 43
1925199N17143 1925 31 WP MM NOT_NAMED 1925-07-20 00:00:00 NR 21.7359 145.436 main 1567 1543 __________P___ -1 21.7359 145.436 7 6 41
1925199N17143 1925 31 WP MM NOT_NAMED 1925-07-20 03:00:00 NR 21.9524 145.628 main 1543 1529 __________P___ -1 21.9524 145.628 7 6 37
1925199N17143 1925 31 WP MM NOT_NAMED 1925-07-20 06:00:00 NR 22.1812 145.801 main 1529 1512 __________P___ -1 22.1812 145.801 7 6 33
1925199N17143 1925 31 WP MM NOT_NAMED 1925-07-20 09:00:00 NR 22.4192 145.954 main 1515 1505 __________P___ -1 22.4192 145.954 7 6 30
1925199N17143 1925 31 WP MM NOT_NAMED 1925-07-20 10:00:00 NR 22.5000 146.000 main 1505 1488 __________O___ -1 22.5000 146.000 7 6 28
1925199N17143 1925 31 WP MM NOT_NAMED 1925-07-20 12:00:00 NR 22.6609 146.094 main 1488 1471 __________P___ -1 22.6609 146.094 7 5 26
1925199N17143 1925 31 WP MM NOT_NAMED 1925-07-20 15:00:00 NR 22.9086 146.217 main 1471 1445 __________P___ -1 22.9086 146.217 7 5 22
1925199N17143 1925 31 WP MM NOT_NAMED 1925-07-20 18:00:00 NR 23.1612 146.315 main 1445 1429 __________P___ -1 23.1612 146.315 7 5 17
1925199N17143 1925 31 WP MM NOT_NAMED 1925-07-20 21:00:00 NR 23.4154 146.384 main 1429 1418 __________P___ -1 23.4154 146.384 7 5 13
1925199N17143 1925 31 WP MM NOT_NAMED 1925-07-20 22:00:00 NR 23.5000 146.400 main 1418 1398 __________O___ -1 23.5000 146.400 7 5 8
1925199N17143 1925 31 WP MM NOT_NAMED 1925-07-21 00:00:00 NR 23.6692 146.433 main 1398 1382 __________P___ -1 23.6692 146.433 7 5 7
1925199N17143 1925 31 WP MM NOT_NAMED 1925-07-21 03:00:00 NR 23.9232 146.458 main 1382 1352 __________P___ -1 23.9232 146.458 7 5 0
1925199N17143 1925 31 WP MM NOT_NAMED 1925-07-21 06:00:00 NR 24.1745 146.453 main 1352 1328 __________P___ -1 24.1745 146.453 7 5 355
1925199N17143 1925 31 WP MM NOT_NAMED 1925-07-21 09:00:00 NR 24.4200 146.418 main 1328 1318 __________P___ -1 24.4200 146.418 7 5 350
1925199N17143 1925 31 WP MM NOT_NAMED 1925-07-21 10:00:00 NR 24.5000 146.400 main 1318 1298 __________O___ -1 24.5000 146.400 7 5 351
1925199N17143 1925 31 WP MM NOT_NAMED 1925-07-21 12:00:00 NR 24.6609 146.369 main 1298 1273 __________P___ -1 24.6609 146.369 7 5 348
1925199N17143 1925 31 WP MM NOT_NAMED 1925-07-21 15:00:00 NR 24.8960 146.298 main 1273 1249 __________P___ -1 24.8960 146.298 7 5 341
1925199N17143 1925 31 WP MM NOT_NAMED 1925-07-21 18:00:00 NR 25.1211 146.194 main 1249 1224 __________P___ -1 25.1211 146.194 7 5 333
1925199N17143 1925 31 WP MM NOT_NAMED 1925-07-21 21:00:00 NR 25.3329 146.055 main 1224 1210 __________P___ -1 25.3329 146.055 7 5 327
1925199N17143 1925 31 WP MM NOT_NAMED 1925-07-21 22:00:00 NR 25.4000 146.000 main 1210 1195 __________O___ -1 25.4000 146.000 2 5 321
1925199N17143 1925 31 WP MM NOT_NAMED 1925-07-22 00:00:00 NR 25.5308 145.879 main 1195 1166 __________P___ -1 25.5308 145.879 2 5 316
1925199N17143 1925 31 WP MM NOT_NAMED 1925-07-22 03:00:00 NR 25.7144 145.665 main 1166 1133 __________P___ -1 25.7144 145.665 2 5 311
1925199N17143 1925 31 WP MM NOT_NAMED 1925-07-22 06:00:00 NR 25.8855 145.427 main 1133 1114 __________P___ -1 25.8855 145.427 2 5 307
1925199N17143 1925 31 WP MM NOT_NAMED 1925-07-22 09:00:00 NR 26.0475 145.181 main 1114 1100 __________P___ -1 26.0475 145.181 2 5 306
1925199N17143 1925 31 WP MM NOT_NAMED 1925-07-22 10:00:00 NR 26.1000 145.100 main 1100 1085 __________O___ -1 26.1000 145.100 2 4 310
1925199N17143 1925 31 WP MM NOT_NAMED 1925-07-22 12:00:00 NR 26.1811 144.998 main 1085 1067 __________P___ -1 26.1811 144.998 2 4 311
1925199N17143 1925 31 WP MM NOT_NAMED 1925-07-22 15:00:00 NR 26.2962 144.847 main 1067 1048 __________P___ -1 26.2962 144.847 2 4 308
1925199N17143 1925 31 WP MM NOT_NAMED 1925-07-22 18:00:00 NR 26.4319 144.647 main 1048 1016 __________P___ -1 26.4319 144.647 2 6 305
1925199N17143 1925 31 WP MM NOT_NAMED 1925-07-22 21:00:00 NR 26.6202 144.337 main 1016 1002 __________P___ -1 26.6202 144.337 2 7 304
1925199N17143 1925 31 WP MM NOT_NAMED 1925-07-22 22:00:00 NR 26.7000 144.200 main 1002 966 __________O___ -1 26.7000 144.200 2 11 301
1925199N17143 1925 31 WP MM NOT_NAMED 1925-07-23 00:00:00 NR 26.8980 143.812 main 966 900 __________P___ -1 26.8980 143.812 2 13 300
1925199N17143 1925 31 WP MM NOT_NAMED 1925-07-23 03:00:00 NR 27.2508 143.109 main 900 845 __________P___ -1 27.2508 143.109 2 15 300
1925199N17143 1925 31 WP MM NOT_NAMED 1925-07-23 06:00:00 NR 27.6469 142.345 main 845 772 __________P___ -1 27.6469 142.345 2 16 302
1925199N17143 1925 31 WP MM NOT_NAMED 1925-07-23 09:00:00 NR 28.0616 141.617 main 772 755 __________P___ -1 28.0616 141.617 2 15 304
1925199N17143 1925 31 WP MM NOT_NAMED 1925-07-23 10:00:00 NR 28.2000 141.400 main 755 711 __________O___ -1 28.2000 141.400 2 13 308
1925199N17143 1925 31 WP MM NOT_NAMED 1925-07-23 12:00:00 NR 28.4734 141.018 main 711 658 __________P___ -1 28.4734 141.018 2 12 313
1925199N17143 1925 31 WP MM NOT_NAMED 1925-07-23 15:00:00 NR 28.8766 140.560 main 658 605 __________P___ -1 28.8766 140.560 2 11 318
1925199N17143 1925 31 WP MM NOT_NAMED 1925-07-23 18:00:00 NR 29.2742 140.200 main 605 556 __________P___ -1 29.2742 140.200 2 10 324
1925199N17143 1925 31 WP MM NOT_NAMED 1925-07-23 21:00:00 NR 29.6688 139.896 main 556 543 __________P___ -1 29.6688 139.896 2 9 326
1925199N17143 1925 31 WP MM NOT_NAMED 1925-07-23 22:00:00 NR 29.8000 139.800 main 543 __________O___ -1 29.8000 139.800 7 9 329

Digital Typhoon Data and Search

About IBTrACS Database

This database is a web-friendly format of International Best Track Archive for Climate Stewardship (IBTrACS), a global best track data archive curated by NOAA dating back to 1842.

Updated: 2021-10-21